Meteo Giornale » Osservazioni meteo Stati Uniti (USA) » Temple-Miller
ore: 12:51 - Osservazioni Meteo Temple-Miller
Lat. 31° 9' N Lon. 97° 24' W Alt. 208 metri s.l.m.
35 °C
Sereno
Temp. 24 Ore
0 °C
37 °C
Nord
0 Km/h
Dew point 19 °C
Umidità 39 %
Visibilità 0 Km
Il sole sorge alle ore 07:05
Il sole tramonta alle ore 19:54
| Data e Ora | Cielo e Fenomeni | T °C | DP °C | Um. % | Pres. hPa | Vis. km | Vento km/h | |
|---|---|---|---|---|---|---|---|---|
| Oggi h: 12:51 | Sereno | 35 | 19 | 39 | 1017 | 0 | N 0 | |
| Oggi h: 11:51 | Sereno | 0 | 0 | 59 | 0 | 0 | N 0 | |
| Oggi h: 10:51 | Sereno | 32 | 23 | 59 | 1018 | 0 | N 0 | |
| Oggi h: 09:51 | Sereno | 30 | 23 | 66 | 1017 | 0 | S/SO 13 | |
| Oggi h: 08:51 | Sereno | 28 | 24 | 78 | 1017 | 0 | S/SO 9.3 | |
| Oggi h: 07:51 | Sereno | 25 | 23 | 88 | 0 | 0 | S 7.4 | |
| Oggi h: 06:51 | Sereno | 23 | 23 | 100 | 1016 | 0 | S 9.3 | |
| Oggi h: 05:51 | Sereno | 24 | 22 | 88 | 1016 | 0 | S 11.1 | |
| Oggi h: 04:51 | Sereno | 24 | 22 | 88 | 1016 | 0 | S 13 | |
| Oggi h: 03:51 | Sereno | 25 | 22 | 83 | 1016 | 0 | S 14.8 | |
| Oggi h: 02:51 | Sereno | 26 | 21 | 73 | 1016 | 0 | S 14.8 | |
| Oggi h: 01:51 | Sereno | 27 | 21 | 69 | 1016 | 0 | S 13 | |
| Oggi h: 00:51 | Sereno | 28 | 21 | 65 | 1016 | 0 | S 14.8 | |
| Ieri h: 23:51 | Sereno | 29 | 20 | 58 | 0 | 0 | S 16.7 | |
| Ieri h: 22:51 | Sereno | 31 | 19 | 48 | 1015 | 0 | S/SE 20.3 | |
| Ieri h: 21:51 | Sereno | 30 | 17 | 45 | 1014 | 0 | SE 13 | |
| Ieri h: 20:51 | Sereno | 31 | 17 | 43 | 1014 | 0 | SE 11.1 | |
| Ieri h: 19:51 | Sereno | 33 | 17 | 38 | 1013 | 0 | S/SE 11.1 | |
| Ieri h: 18:51 | Sereno | 36 | 17 | 32 | 1013 | 0 | S/SE 14.8 | |
| Ieri h: 17:51 | Sereno | 37 | 17 | 30 | 1013 | 0 | S/SE 13 | |
| Ieri h: 16:51 | Poco Nuvoloso | 37 | 18 | 32 | 1013 | 0 | S 22.2 | |
| Ieri h: 15:51 | Nuvoloso | 37 | 19 | 35 | 0 | 0 | N 0 | |
| Ieri h: 14:51 | Sereno | 37 | 17 | 30 | 1015 | 0 | SE 14.8 | |
| Ieri h: 13:51 | Sereno | 36 | 21 | 41 | 1016 | 0 | S/SO 11.1 | |



